AirNav   Textron
 
 1067 users online  

NV21 Sky Ranch Heliport
Sandy Valley, Nevada, USA

GOING TO SANDY VALLEY?


FAA INFORMATION EFFECTIVE 20 JULY 2017

Location

FAA Identifier: NV21
Lat/Long: 35-47-00.0300N / 115-37-33.2800W
35-47.000500N / 115-37.554667W
35.7833417 / -115.6259111
(estimated)
Elevation: 2599 ft. / 792 m (estimated)
Variation: 14E (1985)
From city: 30 miles SW of SANDY VALLEY, NV
Time zone: UTC -7 (UTC -8 during Standard Time)
Zip code: 89019

Heliport Operations

Heliport use: Private use. Permission required prior to landing
Activation date: 07/1991
Control tower: no
ARTCC: LOS ANGELES CENTER
FSS: RENO FLIGHT SERVICE STATION
Attendance: UNATNDD
Segmented circle: no

Nearby radio navigation aids

VOR radial/distance  VOR name  Freq  Var
LASr217/28.8LAS VEGAS VORTAC116.9015E
BLDr236/39.2BOULDER CITY VORTAC116.7015E

Heliport Services

Runway Information

Helipad H1

Dimensions: 54 x 54 ft. / 16 x 16 m
Surface: concrete
Latitude: 35-47.000500N
Longitude: 115-37.554667W
Elevation: 2599.0 ft.
Traffic pattern: leftleft

Heliport Ownership and Management from official FAA records

Ownership: Privately-owned
Owner: MEL AND MARILYN LARSON
13000 S. LAS VEGAS BLVD.
LAS VEGAS, NV 89044
Phone 702-361-0013
702-361-3001
Manager: MEL AND MARILYN LARSON
13000 S. LAS VEGAS BLVD.
LAS VEGAS, NV 89044
Phone 702-361-0013
702-361-3001

Instrument Procedures

There are no published instrument procedures at NV21.

Some nearby airports with instrument procedures:

KHND - Henderson Executive Airport (26 nm NE)
KLAS - Mc Carran International Airport (29 nm NE)
KVGT - North Las Vegas Airport (33 nm NE)
KBVU - Boulder City Municipal Airport (38 nm E)
KLSV - Nellis Air Force Base (40 nm NE)
 
Loc | Ops | Rwys | IFR | FBO | Links
Com | Nav | Svcs | Stats | Notes


 
Area around NV21 (Sky Ranch Heliport)
 
Road maps at: MapQuest Bing Google
 
Aerial photo
No photo
 
Sectional chart

 
Airport distance calculator
Flying to Sky Ranch Heliport? Find the distance to fly.

From to NV21

Sunrise and sunset
Times for 26-Jul-2017
 Local
(UTC-7)
 Zulu
(UTC)
Morning civil twilight05:1812:18
Sunrise05:4712:47
Sunset19:5102:51
Evening civil twilight20:2003:20

Current date and time
Zulu (UTC)  27-Jul-2017 00:11:50
Local (UTC-7)  26-Jul-2017 17:11:50
 
METAR
KHND 
27nm NE 
262356Z 18008KT 10SM CLR A2997 RMK AO2 SLPNO 6//// 57025 $
KLAS 
29nm NE 
262356Z 20008G15KT 10SM FEW110 FEW200 37/16 A2993 RMK AO2 SLP105 T03720156 10383 20300 56027
KVGT 
32nm NE 
262353Z 13012G16KT 10SM CLR 37/15 A2993 RMK AO2 LTG DSNT SW SLP123 T03670150 10367 20300 56027
KBVU 
38nm E 
262355Z AUTO 14005KT 10SM 36/14 A2996 RMK AO2
KLSV 
39nm NE 
262358Z AUTO 09007KT 10SM CLR 37/16 A2991 RMK AO2 SLP103 T03650161 10368 20310 57027 $
KINS 
48nm N 
262358Z AUTO 08009KT 10SM -RA SCT037 32/18 A3000 RMK AO2 RAB40 SLP111 P0004 60004 T03150181 10351 20292 57020 $
TAF
KHND 
27nm NE 
261726Z 2618/2718 05006KT P6SM FEW100 FEW200 FM262000 16009KT P6SM VCSH SCT100 BKN250 FM270100 20009KT P6SM SCT100 SCT250 FM271600 06005KT P6SM SKC
KLAS 
29nm NE 
262039Z 2621/2724 14007KT P6SM SCT100 BKN150 FM270100 22008KT P6SM SCT100 SCT250 FM271500 VRB04KT P6SM SKC FM271800 09005KT P6SM FEW120
KVGT 
32nm NE 
261726Z 2618/2718 13008KT P6SM FEW100 FEW200 FM262000 14009KT P6SM VCSH SCT100 BKN250 FM270100 VRB06KT P6SM SCT100 SCT250 FM271500 10005KT P6SM SKC
NOTAMs
Click for the latest NOTAMs
NOTAMs are issued by the DoD/FAA and will open in a separate window not controlled by AirNav.

 

 
 

Would you like to see your business listed on this page?

 If your business provides an interesting product or service to pilots, flight crews, aircraft, or users of the Sky Ranch Heliport, you should consider listing it here.  To start the listing process, click on the button below
 
Add a business
 

Other Pages about Sky Ranch Heliport

Update a link
 
Copyright © AirNav, LLC. All rights reserved. Privacy Policy  Contact